This is the latest recevied weather packets stored in our database for station/object KD4EG. If no packets are shown the sender has not sent any weather packets the latest 10 day(s).
| Time | Temp. | Humidity | Pressure | Rain* | Wind** | Luminosity | Snow |
|---|---|---|---|---|---|---|---|
| 1777760409 | 15° C | 41% | 1014.8 hPa | 0 mm | - | 174 W/m² | - |
| 1777760104 | 15° C | 40% | 1015.1 hPa | 0 mm | - | 173 W/m² | - |
| 1777759804 | 15° C | 40% | 1014.7 hPa | 0 mm | - | 214 W/m² | - |
| 1777759497 | 15° C | 39% | 1014.7 hPa | 0 mm | - | 267 W/m² | - |
| 1777758891 | 15.56° C | 38% | 1014.6 hPa | 0 mm | - | 278 W/m² | - |
| 1777757679 | 15° C | 39% | 1014.5 hPa | 0 mm | - | 312 W/m² | - |
| 1777757378 | 16.11° C | 38% | 1014.5 hPa | 0 mm | - | 269 W/m² | - |
| 1777757076 | 15.56° C | 38% | 1014.5 hPa | 0 mm | - | 439 W/m² | - |
| 1777756773 | 15° C | 40% | 1014.4 hPa | 0 mm | - | 421 W/m² | - |
| 1777756469 | 15.56° C | 39% | 1014.3 hPa | 0 mm | - | 391 W/m² | - |
| 1777756166 | 15° C | 40% | 1014.4 hPa | 0 mm | - | 270 W/m² | - |
| 1777755863 | 15.56° C | 39% | 1014.2 hPa | 0 mm | - | 259 W/m² | - |
| 1777755560 | 15.56° C | 39% | 1014.3 hPa | 0 mm | - | 383 W/m² | - |
| 1777754954 | 16.11° C | 39% | 1014.3 hPa | 0 mm | - | 358 W/m² | - |
| 1777754348 | 15.56° C | 39% | 1014.1 hPa | 0 mm | - | 442 W/m² | - |
| 1777753741 | 15° C | 39% | 1014.5 hPa | 0 mm | - | 200 W/m² | - |
| 1777753136 | 15.56° C | 39% | 1014.4 hPa | 0 mm | - | 242 W/m² | - |
| 1777752529 | 16.11° C | 39% | 1014.3 hPa | 0 mm | - | 451 W/m² | - |
| 1777751923 | 16.67° C | 36% | 1014.2 hPa | 0 mm | - | 361 W/m² | - |
| 1777751619 | 16.67° C | 37% | 1014.2 hPa | 0 mm | - | 730 W/m² | - |
| 1777751316 | 16.67° C | 37% | 1014.1 hPa | 0 mm | - | 582 W/m² | - |
| 1777749496 | 16.67° C | 36% | 1013.8 hPa | 0 mm | - | 679 W/m² | - |
| 1777748891 | 16.67° C | 36% | 1014.1 hPa | 0 mm | - | 677 W/m² | - |
| 1777748588 | 17.22° C | 36% | 1014.1 hPa | 0 mm | - | 426 W/m² | - |
| 1777744646 | 16.11° C | 39% | 1014.7 hPa | 0 mm | - | 776 W/m² | - |
* Rain latest hour (hover to see other rain measurements)
** Current wind speed in m/s (hover to see current wind gust speed)